createdAt,value
2023-04-18T00:00:05.593Z,11.41
2023-04-18T00:02:55.283Z,11.30
2023-04-18T00:05:23.206Z,11.24
2023-04-18T00:07:51.496Z,11.26
2023-04-18T00:10:19.149Z,11.35
2023-04-18T00:12:46.481Z,11.34
2023-04-18T00:15:14.222Z,11.32
2023-04-18T00:18:18.618Z,11.18
2023-04-18T00:20:47.033Z,11.30
2023-04-18T00:23:14.938Z,11.25
2023-04-18T00:25:42.460Z,11.25
2023-04-18T00:28:10.007Z,11.26
2023-04-18T00:30:37.772Z,11.31
2023-04-18T00:33:05.549Z,11.29
2023-04-18T00:35:33.232Z,11.26
2023-04-18T00:38:00.473Z,11.14
2023-04-18T00:40:27.995Z,11.05
2023-04-18T00:42:55.833Z,11.17
2023-04-18T00:45:23.393Z,11.27
2023-04-18T00:47:50.736Z,11.33
2023-04-18T00:50:19.811Z,11.22
2023-04-18T00:52:48.008Z,11.34
2023-04-18T00:55:16.631Z,11.35
2023-04-18T00:57:44.050Z,11.24
2023-04-18T01:00:12.596Z,11.19
2023-04-18T01:02:40.717Z,11.31
2023-04-18T01:05:08.894Z,11.30
2023-04-18T01:07:41.794Z,11.23
2023-04-18T01:10:11.288Z,11.26
2023-04-18T01:12:38.700Z,11.00
2023-04-18T01:15:07.702Z,11.18
2023-04-18T01:17:35.599Z,11.27
2023-04-18T01:24:31.984Z,11.18
2023-04-18T01:26:59.544Z,11.19
2023-04-18T01:29:27.100Z,11.15
2023-04-18T01:31:54.351Z,11.06
2023-04-18T01:34:21.899Z,11.23
2023-04-18T01:36:49.319Z,11.19
2023-04-18T01:39:18.414Z,11.23
2023-04-18T01:41:45.847Z,11.19
2023-04-18T01:44:13.644Z,11.16
2023-04-18T01:46:41.165Z,11.20
2023-04-18T01:49:09.955Z,11.19
2023-04-18T01:51:39.023Z,11.18
2023-04-18T01:54:06.574Z,11.17
2023-04-18T01:56:33.818Z,11.25
2023-04-18T01:59:01.367Z,11.12
2023-04-18T02:01:28.580Z,11.08
2023-04-18T02:03:56.296Z,11.22
2023-04-18T02:06:23.648Z,11.30
2023-04-18T02:08:51.144Z,11.28
2023-04-18T02:11:18.437Z,11.39
2023-04-18T02:13:46.000Z,11.11
2023-04-18T02:16:14.061Z,10.97
2023-04-18T02:18:43.716Z,11.15
2023-04-18T02:21:11.334Z,11.29
2023-04-18T02:23:38.872Z,11.32
2023-04-18T02:26:06.677Z,11.33
2023-04-18T02:28:34.389Z,11.35
2023-04-18T02:31:01.689Z,11.29
2023-04-18T02:33:29.313Z,11.27
2023-04-18T02:35:56.580Z,11.22
2023-04-18T02:38:24.149Z,11.22
2023-04-18T02:40:51.461Z,11.12
2023-04-18T02:43:18.984Z,11.14
2023-04-18T02:45:46.293Z,11.09
2023-04-18T02:48:13.840Z,11.18
2023-04-18T02:50:41.202Z,11.02
2023-04-18T02:53:08.888Z,11.18
2023-04-18T02:55:37.291Z,11.19
2023-04-18T02:58:05.012Z,11.29
2023-04-18T03:00:32.334Z,11.27
2023-04-18T03:03:00.026Z,11.16
2023-04-18T03:05:27.429Z,11.23
2023-04-18T03:07:54.942Z,11.21
2023-04-18T03:10:22.235Z,11.21
2023-04-18T03:12:49.778Z,11.06
2023-04-18T03:15:17.105Z,11.17
2023-04-18T03:17:44.758Z,11.22
2023-04-18T03:20:12.852Z,11.19
2023-04-18T03:22:40.404Z,11.20
2023-04-18T03:25:08.516Z,11.23
2023-04-18T03:27:36.116Z,11.23
2023-04-18T03:30:03.920Z,11.22
2023-04-18T03:32:34.096Z,11.15
2023-04-18T03:35:01.484Z,11.11
2023-04-18T03:37:29.259Z,11.19
2023-04-18T03:39:56.473Z,11.12
2023-04-18T03:42:24.279Z,11.19
2023-04-18T03:44:51.507Z,11.05
2023-04-18T03:47:19.060Z,11.13
2023-04-18T03:49:46.270Z,11.20
2023-04-18T03:52:13.851Z,11.18
2023-04-18T03:54:41.083Z,11.11
2023-04-18T03:57:08.624Z,11.30
2023-04-18T03:59:36.132Z,11.30
2023-04-18T04:02:03.871Z,11.21
2023-04-18T04:04:31.456Z,11.37
2023-04-18T04:06:59.787Z,11.36
2023-04-18T04:09:27.199Z,11.28
2023-04-18T04:11:54.741Z,11.42
2023-04-18T04:14:22.908Z,11.36
2023-04-18T04:16:51.773Z,11.39
2023-04-18T04:19:19.152Z,11.35
2023-04-18T04:21:46.641Z,11.42
2023-04-18T04:24:14.119Z,11.33
2023-04-18T04:26:43.342Z,11.41
2023-04-18T04:29:10.936Z,11.45
2023-04-18T04:31:38.480Z,11.42
2023-04-18T04:34:06.336Z,11.36
2023-04-18T04:36:33.851Z,11.32
2023-04-18T04:39:04.272Z,11.32
2023-04-18T04:41:31.786Z,11.27
2023-04-18T04:43:59.711Z,11.42
2023-04-18T04:46:30.372Z,11.44
2023-04-18T04:48:57.777Z,11.52
2023-04-18T04:51:25.926Z,11.49
2023-04-18T04:53:53.127Z,11.49
2023-04-18T04:56:20.725Z,11.60
2023-04-18T04:58:48.042Z,11.77
2023-04-18T05:01:16.933Z,11.86
2023-04-18T05:03:44.400Z,11.95
2023-04-18T05:06:12.453Z,11.95
2023-04-18T05:08:39.835Z,12.07
2023-04-18T05:11:07.337Z,12.07
2023-04-18T05:13:34.636Z,12.14
2023-04-18T05:16:02.927Z,12.09
2023-04-18T05:18:30.174Z,12.20
2023-04-18T05:20:57.776Z,12.33
2023-04-18T05:23:25.086Z,12.44
2023-04-18T05:25:53.022Z,12.46
2023-04-18T05:28:20.353Z,12.58
2023-04-18T05:30:47.948Z,12.52
2023-04-18T05:33:15.352Z,12.59
2023-04-18T05:35:42.936Z,12.62
2023-04-18T05:38:10.404Z,12.90
2023-04-18T05:40:38.033Z,13.06
2023-04-18T05:43:05.591Z,13.26
2023-04-18T05:45:33.124Z,13.18
2023-04-18T05:48:00.590Z,13.11
2023-04-18T05:50:28.145Z,13.18
2023-04-18T05:52:55.454Z,13.26
2023-04-18T05:55:22.931Z,13.17
2023-04-18T05:57:50.221Z,13.16
2023-04-18T06:00:18.771Z,13.25
2023-04-18T06:02:46.526Z,13.16
2023-04-18T06:05:14.534Z,13.07
2023-04-18T06:07:41.941Z,13.24
2023-04-18T06:10:13.408Z,13.20
2023-04-18T06:12:40.957Z,13.42
2023-04-18T06:15:09.811Z,13.64
2023-04-18T06:17:37.802Z,13.69
2023-04-18T06:20:06.449Z,13.80
2023-04-18T06:22:34.856Z,13.82
2023-04-18T06:25:02.485Z,13.67
2023-04-18T06:27:31.508Z,13.82
2023-04-18T06:29:59.672Z,14.06
2023-04-18T06:32:27.404Z,14.22
2023-04-18T06:34:55.053Z,14.22
2023-04-18T06:37:22.544Z,13.74
2023-04-18T06:39:50.084Z,13.69
2023-04-18T06:42:17.706Z,13.57
2023-04-18T06:44:46.003Z,13.78
2023-04-18T06:47:13.315Z,13.80
2023-04-18T06:49:41.513Z,13.50
2023-04-18T06:52:09.134Z,13.54
2023-04-18T06:54:36.645Z,13.74
2023-04-18T06:57:04.274Z,13.61
2023-04-18T06:59:31.829Z,14.32
2023-04-18T07:01:59.077Z,14.36
2023-04-18T07:04:27.064Z,14.83
2023-04-18T07:06:54.515Z,15.93
2023-04-18T07:09:22.874Z,16.09
2023-04-18T07:11:51.850Z,16.52
2023-04-18T07:14:24.794Z,16.50
2023-04-18T07:16:52.374Z,16.18
2023-04-18T07:19:20.086Z,16.44
2023-04-18T07:21:47.410Z,16.49
2023-04-18T07:24:15.125Z,16.47
2023-04-18T07:26:42.543Z,16.79
2023-04-18T07:29:10.098Z,17.21
2023-04-18T07:31:37.431Z,17.22
2023-04-18T07:34:04.963Z,17.21
2023-04-18T07:36:32.703Z,16.85
2023-04-18T07:39:02.083Z,17.45
2023-04-18T07:41:29.376Z,17.14
2023-04-18T07:43:56.996Z,17.42
2023-04-18T07:46:24.437Z,17.69
2023-04-18T07:48:53.369Z,17.98
2023-04-18T07:51:21.827Z,18.61
2023-04-18T07:53:49.328Z,18.81
2023-04-18T07:56:16.565Z,19.67
2023-04-18T07:58:44.173Z,20.40
2023-04-18T08:01:14.490Z,20.80
2023-04-18T08:03:42.276Z,20.95
2023-04-18T08:06:10.564Z,22.29
2023-04-18T08:08:38.162Z,23.21
2023-04-18T08:11:05.532Z,23.15
2023-04-18T08:13:33.338Z,23.22
2023-04-18T08:16:02.415Z,23.58
2023-04-18T08:18:30.034Z,23.23
2023-04-18T08:20:57.440Z,24.31
2023-04-18T08:23:24.955Z,23.83
2023-04-18T08:25:52.191Z,24.81
2023-04-18T08:28:19.766Z,27.40
2023-04-18T08:30:50.467Z,27.77
2023-04-18T08:33:19.025Z,26.88
2023-04-18T08:35:46.266Z,28.78
2023-04-18T08:38:13.813Z,29.71
2023-04-18T08:40:41.078Z,28.51
2023-04-18T08:43:12.781Z,29.71
2023-04-18T08:45:44.391Z,32.83
2023-04-18T08:48:17.534Z,30.49
2023-04-18T08:50:45.601Z,31.08
2023-04-18T08:53:13.737Z,30.95
2023-04-18T08:55:42.113Z,32.96
2023-04-18T08:58:12.540Z,30.57
2023-04-18T09:00:39.895Z,30.51
2023-04-18T09:03:07.674Z,34.81
2023-04-18T09:05:35.723Z,32.16
2023-04-18T09:08:26.114Z,34.58
2023-04-18T09:10:53.384Z,35.71
2023-04-18T09:13:39.709Z,38.24
2023-04-18T09:16:07.323Z,36.61
2023-04-18T09:18:35.333Z,36.05
2023-04-18T09:21:21.522Z,27.63
2023-04-18T09:23:50.455Z,28.62
2023-04-18T09:26:36.271Z,30.62
2023-04-18T09:29:05.293Z,30.88
2023-04-18T09:31:32.710Z,30.80
2023-04-18T09:34:03.111Z,33.02
2023-04-18T09:36:32.408Z,33.47
2023-04-18T09:39:00.413Z,32.22
2023-04-18T09:41:27.976Z,30.54
2023-04-18T09:44:21.832Z,33.95
2023-04-18T09:46:51.128Z,38.43
2023-04-18T09:49:19.162Z,37.84
2023-04-18T09:51:47.109Z,36.56
2023-04-18T09:54:17.162Z,39.84
2023-04-18T09:56:46.074Z,41.34
2023-04-18T09:59:54.105Z,38.49
2023-04-18T10:02:25.148Z,35.32
2023-04-18T10:04:54.435Z,30.78
2023-04-18T10:07:23.847Z,39.09
2023-04-18T10:09:52.548Z,41.04
2023-04-18T10:12:20.232Z,43.46
2023-04-18T10:14:48.208Z,43.29
2023-04-18T10:17:16.230Z,46.45
2023-04-18T10:19:46.149Z,44.90
2023-04-18T10:22:13.506Z,40.40
2023-04-18T10:24:53.718Z,42.67
2023-04-18T10:27:49.207Z,44.59
2023-04-18T10:30:18.585Z,45.29
2023-04-18T10:32:48.838Z,43.50
2023-04-18T10:35:16.419Z,46.24
2023-04-18T10:37:59.610Z,44.60
2023-04-18T10:40:34.747Z,41.98
2023-04-18T10:43:02.271Z,42.87
2023-04-18T10:45:36.344Z,44.41
2023-04-18T10:48:27.692Z,45.41
2023-04-18T10:51:18.684Z,43.48
2023-04-18T10:53:54.545Z,39.60
2023-04-18T10:56:22.442Z,35.88
2023-04-18T10:58:53.856Z,37.67
2023-04-18T11:01:32.388Z,37.29
2023-04-18T11:04:10.983Z,36.42
2023-04-18T11:06:53.240Z,38.59
2023-04-18T11:09:20.872Z,38.03
2023-04-18T11:12:10.613Z,37.90
2023-04-18T11:14:49.960Z,35.97
2023-04-18T11:17:17.926Z,38.62
2023-04-18T11:19:45.711Z,39.84
2023-04-18T11:22:14.557Z,39.87
2023-04-18T11:24:43.131Z,37.94
2023-04-18T11:27:12.295Z,35.55
2023-04-18T11:29:39.639Z,35.46
2023-04-18T11:32:09.595Z,35.12
2023-04-18T11:34:36.970Z,35.92
2023-04-18T11:37:08.483Z,34.90
2023-04-18T11:39:46.840Z,34.38
2023-04-18T11:42:14.492Z,34.46
2023-04-18T11:44:46.907Z,36.56
2023-04-18T11:47:31.703Z,35.28
2023-04-18T11:50:02.828Z,31.44
2023-04-18T11:52:33.074Z,30.48
2023-04-18T11:55:21.892Z,29.85
2023-04-18T11:58:01.177Z,30.40
2023-04-18T12:00:38.565Z,30.52
2023-04-18T12:03:18.989Z,30.84
2023-04-18T12:05:46.809Z,30.32
2023-04-18T12:08:21.348Z,30.11
2023-04-18T12:10:51.447Z,29.82
2023-04-18T12:13:26.197Z,29.16
2023-04-18T12:15:54.458Z,29.32
2023-04-18T12:18:24.785Z,28.91
2023-04-18T12:20:54.540Z,28.67
2023-04-18T12:23:40.440Z,29.18
2023-04-18T12:26:14.585Z,29.33
2023-04-18T12:28:46.292Z,30.09
2023-04-18T12:31:13.621Z,30.42
2023-04-18T12:33:41.158Z,30.41
2023-04-18T12:36:10.048Z,29.17
2023-04-18T12:38:37.579Z,30.40
2023-04-18T12:41:05.573Z,29.71
2023-04-18T12:43:33.157Z,29.62
2023-04-18T12:46:00.468Z,28.70
2023-04-18T12:48:28.447Z,27.78
2023-04-18T12:50:55.825Z,26.63
2023-04-18T12:53:23.321Z,24.89
2023-04-18T12:55:51.024Z,25.64
2023-04-18T12:58:18.916Z,25.96
2023-04-18T13:00:46.519Z,26.35
2023-04-18T13:03:14.277Z,26.21
2023-04-18T13:05:41.749Z,26.04
2023-04-18T13:08:16.946Z,25.30
2023-04-18T13:10:48.408Z,24.89
2023-04-18T13:13:16.203Z,24.11
2023-04-18T13:15:43.542Z,24.09
2023-04-18T13:18:11.184Z,24.13
2023-04-18T13:20:38.382Z,24.11
2023-04-18T13:23:05.977Z,24.58
2023-04-18T13:25:33.287Z,24.68
2023-04-18T13:28:01.240Z,24.60
2023-04-18T13:30:28.685Z,24.40
2023-04-18T13:32:56.985Z,24.65
2023-04-18T13:35:24.258Z,24.54
2023-04-18T13:37:51.872Z,24.72
2023-04-18T13:40:19.172Z,25.37
2023-04-18T13:42:46.646Z,25.42
2023-04-18T13:45:32.537Z,25.14
2023-04-18T13:48:00.108Z,25.54
2023-04-18T13:50:27.432Z,26.12
2023-04-18T13:52:55.004Z,25.70
2023-04-18T13:55:22.332Z,25.56
2023-04-18T13:57:49.921Z,25.75
2023-04-18T14:00:19.173Z,24.93
2023-04-18T14:02:46.858Z,24.88
2023-04-18T14:05:14.224Z,24.20
2023-04-18T14:07:42.026Z,24.28
2023-04-18T14:10:10.006Z,23.67
2023-04-18T14:12:37.679Z,23.96
2023-04-18T14:15:05.827Z,23.94
2023-04-18T14:17:34.052Z,23.72
2023-04-18T14:20:01.872Z,23.82
2023-04-18T14:22:31.214Z,23.73
2023-04-18T14:24:58.631Z,22.96
2023-04-18T14:27:26.586Z,23.02
2023-04-18T14:29:53.953Z,22.65
2023-04-18T14:32:21.520Z,22.50
2023-04-18T14:34:48.810Z,22.58
2023-04-18T14:37:17.686Z,22.26
2023-04-18T14:39:45.118Z,22.30
2023-04-18T14:42:12.639Z,21.85
2023-04-18T14:44:40.188Z,22.05
2023-04-18T14:47:07.927Z,22.29
2023-04-18T14:49:35.480Z,22.32
2023-04-18T14:52:03.076Z,21.87
2023-04-18T14:54:32.488Z,22.29
2023-04-18T14:57:01.244Z,22.17
2023-04-18T14:59:28.916Z,22.01
2023-04-18T15:01:56.535Z,21.96
2023-04-18T15:04:23.965Z,21.93
2023-04-18T15:06:51.825Z,21.78
2023-04-18T15:09:19.096Z,21.56
2023-04-18T15:11:46.722Z,21.49
2023-04-18T15:14:14.184Z,21.66
2023-04-18T15:16:41.938Z,21.28
2023-04-18T15:19:09.228Z,21.60
2023-04-18T15:21:36.869Z,21.20
2023-04-18T15:24:04.233Z,21.06
2023-04-18T15:26:33.241Z,20.76
2023-04-18T15:29:03.767Z,21.18
2023-04-18T15:31:31.491Z,21.19
2023-04-18T15:33:59.026Z,20.90
2023-04-18T15:36:27.767Z,20.76
2023-04-18T15:38:55.112Z,20.51
2023-04-18T15:41:23.341Z,20.42
2023-04-18T15:43:52.712Z,20.06
2023-04-18T15:46:20.394Z,19.77
2023-04-18T15:48:47.713Z,19.72
2023-04-18T15:51:15.402Z,19.51
2023-04-18T15:53:42.640Z,19.21
2023-04-18T15:56:10.296Z,19.17
2023-04-18T15:58:37.634Z,19.19
2023-04-18T16:01:06.089Z,19.16
2023-04-18T16:03:33.585Z,19.26
2023-04-18T16:06:04.608Z,19.32
2023-04-18T16:08:33.268Z,19.10
2023-04-18T16:11:01.124Z,19.23
2023-04-18T16:13:28.308Z,19.32
2023-04-18T16:15:56.017Z,19.13
2023-04-18T16:18:23.337Z,19.08
2023-04-18T16:20:51.884Z,19.00
2023-04-18T16:23:20.629Z,18.58
2023-04-18T16:25:48.596Z,18.61
2023-04-18T16:28:15.988Z,18.70
2023-04-18T16:30:45.727Z,18.33
2023-04-18T16:33:13.039Z,18.42
2023-04-18T16:35:40.728Z,18.15
2023-04-18T16:38:08.024Z,18.08
2023-04-18T16:40:35.775Z,18.29
2023-04-18T16:43:03.115Z,18.28
2023-04-18T16:45:30.623Z,18.29
2023-04-18T16:47:58.070Z,18.02
2023-04-18T16:50:26.374Z,18.05
2023-04-18T16:52:53.734Z,17.89
2023-04-18T16:55:21.648Z,17.59
2023-04-18T16:57:48.960Z,17.28
2023-04-18T17:00:16.838Z,17.15
2023-04-18T17:02:49.565Z,17.24
2023-04-18T17:05:18.750Z,17.12
2023-04-18T17:07:47.876Z,17.25
2023-04-18T17:10:15.711Z,17.35
2023-04-18T17:12:42.990Z,17.31
2023-04-18T17:15:11.171Z,17.08
2023-04-18T17:17:38.493Z,16.96
2023-04-18T17:20:09.941Z,17.03
2023-04-18T17:22:37.322Z,16.89
2023-04-18T17:25:06.187Z,16.84
2023-04-18T17:27:33.800Z,16.99
2023-04-18T17:30:01.408Z,16.94
2023-04-18T17:32:28.931Z,16.72
2023-04-18T17:34:56.607Z,16.69
2023-04-18T17:37:24.087Z,16.51
2023-04-18T17:39:54.640Z,16.48
2023-04-18T17:42:21.962Z,16.56
2023-04-18T17:44:49.651Z,16.04
2023-04-18T17:47:18.573Z,16.34
2023-04-18T17:49:46.495Z,16.04
2023-04-18T17:52:13.769Z,16.04
2023-04-18T17:54:41.855Z,16.06
2023-04-18T17:57:09.142Z,16.14
2023-04-18T17:59:37.883Z,16.14
2023-04-18T18:02:05.973Z,16.23
2023-04-18T18:04:33.694Z,16.11
2023-04-18T18:07:01.638Z,15.97
2023-04-18T18:09:29.758Z,15.83
2023-04-18T18:11:58.722Z,15.86
2023-04-18T18:14:27.962Z,15.92
2023-04-18T18:16:55.583Z,15.55
2023-04-18T18:19:23.269Z,15.74
2023-04-18T18:21:50.778Z,15.79
2023-04-18T18:24:18.875Z,15.60
2023-04-18T18:26:46.223Z,15.72
2023-04-18T18:29:14.093Z,15.62
2023-04-18T18:31:42.478Z,15.57
2023-04-18T18:34:10.241Z,15.65
2023-04-18T18:36:38.066Z,15.59
2023-04-18T18:39:05.901Z,15.32
2023-04-18T18:41:33.721Z,15.40
2023-04-18T18:44:01.488Z,15.44
2023-04-18T18:46:28.854Z,15.27
2023-04-18T18:48:56.495Z,15.10
2023-04-18T18:51:23.932Z,15.29
2023-04-18T18:53:51.424Z,15.14
2023-04-18T18:56:18.758Z,15.20
2023-04-18T18:58:46.403Z,15.24
2023-04-18T19:01:13.894Z,15.05
2023-04-18T19:03:41.574Z,15.15
2023-04-18T19:06:08.970Z,15.10
2023-04-18T19:08:36.596Z,15.01
2023-04-18T19:11:05.123Z,14.99
2023-04-18T19:13:32.927Z,14.62
2023-04-18T19:16:00.328Z,14.92
2023-04-18T19:18:27.754Z,14.87
2023-04-18T19:20:55.549Z,14.75
2023-04-18T19:23:25.125Z,14.84
2023-04-18T19:25:52.751Z,14.85
2023-04-18T19:28:20.232Z,14.86
2023-04-18T19:30:48.253Z,14.44
2023-04-18T19:33:15.841Z,14.68
2023-04-18T19:35:43.411Z,14.81
2023-04-18T19:38:10.778Z,14.73
2023-04-18T19:40:38.364Z,14.39
2023-04-18T19:43:05.652Z,14.43
2023-04-18T19:45:33.265Z,14.52
2023-04-18T19:48:00.773Z,14.44
2023-04-18T19:50:28.522Z,14.40
2023-04-18T19:52:55.994Z,14.18
2023-04-18T19:55:23.949Z,14.30
2023-04-18T19:57:56.677Z,14.17
2023-04-18T20:00:24.411Z,14.23
2023-04-18T20:02:52.158Z,14.32
2023-04-18T20:05:20.473Z,14.34
2023-04-18T20:07:48.163Z,14.26
2023-04-18T20:10:15.937Z,14.19
2023-04-18T20:12:43.165Z,14.18
2023-04-18T20:15:11.532Z,14.22
2023-04-18T20:17:38.946Z,14.12
2023-04-18T20:20:09.375Z,14.11
2023-04-18T20:22:38.021Z,14.13
2023-04-18T20:25:06.761Z,14.13
2023-04-18T20:27:34.098Z,14.03
2023-04-18T20:30:01.776Z,14.13
2023-04-18T20:32:29.152Z,14.02
2023-04-18T20:34:58.682Z,14.01
2023-04-18T20:37:27.763Z,13.97
2023-04-18T20:39:56.693Z,14.03
2023-04-18T20:42:23.997Z,14.08
2023-04-18T20:44:54.780Z,14.16
2023-04-18T20:47:22.091Z,14.27
2023-04-18T20:49:49.669Z,14.35
2023-04-18T20:52:17.068Z,14.38
2023-04-18T20:54:44.721Z,14.44
2023-04-18T20:57:12.201Z,14.48
2023-04-18T20:59:39.938Z,14.55
2023-04-18T21:02:08.494Z,14.59
2023-04-18T21:04:36.526Z,14.65
2023-04-18T21:07:03.861Z,14.69
2023-04-18T21:09:36.513Z,14.70
2023-04-18T21:12:06.125Z,14.70
2023-04-18T21:14:33.820Z,14.70
2023-04-18T21:17:01.852Z,14.74
2023-04-18T21:19:29.446Z,14.75
2023-04-18T21:21:56.757Z,14.77
2023-04-18T21:24:24.590Z,14.85
2023-04-18T21:26:51.945Z,14.82
2023-04-18T21:29:19.585Z,14.83
2023-04-18T21:31:49.040Z,14.81
2023-04-18T21:34:16.755Z,14.80
2023-04-18T21:36:44.166Z,14.78
2023-04-18T21:39:11.968Z,14.80
2023-04-18T21:41:39.332Z,14.79
2023-04-18T21:44:06.979Z,14.80
2023-04-18T21:46:34.154Z,14.79
2023-04-18T21:49:01.758Z,14.76
2023-04-18T21:51:29.418Z,14.74
2023-04-18T21:53:56.941Z,14.75
2023-04-18T21:56:24.208Z,14.77
2023-04-18T21:58:51.715Z,14.68
2023-04-18T22:01:19.056Z,14.71
2023-04-18T22:03:47.029Z,14.68
2023-04-18T22:06:14.537Z,14.67
2023-04-18T22:08:42.220Z,14.67
2023-04-18T22:11:11.720Z,14.68
2023-04-18T22:13:39.549Z,14.65
2023-04-18T22:16:08.363Z,14.64
2023-04-18T22:18:37.655Z,14.65
2023-04-18T22:21:06.201Z,14.69
2023-04-18T22:23:33.731Z,14.68
2023-04-18T22:26:01.083Z,14.72
2023-04-18T22:28:28.854Z,14.71
2023-04-18T22:30:56.389Z,14.72
2023-04-18T22:33:24.577Z,14.71
2023-04-18T22:35:52.577Z,14.71
2023-04-18T22:38:20.150Z,14.70
2023-04-18T22:40:47.450Z,14.68
2023-04-18T22:43:15.055Z,14.71
2023-04-18T22:45:42.450Z,14.70
2023-04-18T22:48:12.302Z,14.69
2023-04-18T22:50:42.926Z,14.68
2023-04-18T22:53:11.644Z,14.68
2023-04-18T22:55:40.799Z,14.70
2023-04-18T22:58:09.693Z,14.68
2023-04-18T23:00:37.471Z,14.68
2023-04-18T23:03:05.555Z,14.68
2023-04-18T23:05:34.290Z,14.69
2023-04-18T23:08:01.897Z,14.72
2023-04-18T23:10:29.410Z,14.66
2023-04-18T23:12:58.158Z,14.64
2023-04-18T23:15:26.413Z,14.60
2023-04-18T23:17:54.509Z,14.59
2023-04-18T23:20:23.968Z,14.56
2023-04-18T23:22:51.978Z,14.58
2023-04-18T23:25:20.010Z,14.56
2023-04-18T23:27:48.012Z,14.56
2023-04-18T23:30:15.467Z,14.55
2023-04-18T23:32:43.049Z,14.56
2023-04-18T23:35:11.718Z,14.53
2023-04-18T23:37:39.315Z,14.53
2023-04-18T23:40:08.019Z,14.51
2023-04-18T23:42:36.389Z,14.51
2023-04-18T23:45:05.940Z,14.51
2023-04-18T23:47:33.584Z,14.48
2023-04-18T23:50:01.458Z,14.42
2023-04-18T23:52:29.197Z,14.40
2023-04-18T23:55:02.456Z,14.38
2023-04-18T23:57:30.102Z,14.39
2023-04-18T23:59:57.358Z,14.38
